Time;durP1;ratioP1;P1;durP2;ratioP2;P2;SDS_P1;SDS_P2;PMS_P1;PMS_P2;Temp;Humidity;BMP_temperature;BMP_pressure;BME280_temperature;BME280_humidity;BME280_pressure;Samples;Min_cycle;Max_cycle;Signal;HPM_P1;HPM_P2
2023/01/17 00:02:02;;;;;;;293.52;69.20;;;;;;;;;;5058204;28;20206;-73
2023/01/17 00:10:06;;;;;;;295.58;71.78;;;;;;;;;;5095957;28;20247;-73
2023/01/17 00:12:34;;;;;;;293.00;74.15;;;;;;;;;;5096098;28;20205;-73
2023/01/17 00:15:02;;;;;;;298.67;83.82;;;;;;;;;;5093734;28;20213;-73
2023/01/17 00:17:30;;;;;;;285.55;74.18;;;;;;;;;;5075525;28;20213;-73
2023/01/17 01:35:41;;;;;;;271.50;65.60;;;;;;;;;;5092768;28;20280;-73
2023/01/17 01:38:09;;;;;;;284.42;65.53;;;;;;;;;;5080653;28;20206;-73
2023/01/17 01:40:42;;;;;;;273.52;64.03;;;;;;;;;;5081753;28;20228;-73
2023/01/17 01:43:13;;;;;;;268.38;65.28;;;;;;;;;;5098092;28;20255;-73
2023/01/17 01:45:41;;;;;;;264.90;66.38;;;;;;;;;;5097754;28;20403;-73
2023/01/17 01:48:21;;;;;;;265.48;65.03;;;;;;;;;;5098462;28;20479;-73
2023/01/17 01:50:51;;;;;;;280.25;65.00;;;;;;;;;;5098250;28;20201;-73
2023/01/17 01:53:22;;;;;;;265.95;65.22;;;;;;;;;;5088928;28;20229;-73
2023/01/17 01:55:50;;;;;;;282.77;66.63;;;;;;;;;;5077465;28;20613;-73
2023/01/17 01:58:20;;;;;;;283.10;65.28;;;;;;;;;;5076813;28;20210;-73
2023/01/17 02:00:49;;;;;;;288.55;68.90;;;;;;;;;;5077156;28;20230;-74
2023/01/17 02:03:31;;;;;;;281.60;67.20;;;;;;;;;;5076918;28;20305;-73
2023/01/17 02:06:01;;;;;;;275.33;65.05;;;;;;;;;;5077345;28;20249;-73
2023/01/17 02:08:29;;;;;;;285.08;67.93;;;;;;;;;;5078311;28;20292;-73
2023/01/17 02:10:57;;;;;;;280.48;64.90;;;;;;;;;;5077722;28;20206;-73
2023/01/17 02:13:30;;;;;;;282.77;66.05;;;;;;;;;;5078272;28;20206;-73
2023/01/17 02:15:59;;;;;;;284.58;66.72;;;;;;;;;;5077828;28;20217;-73
2023/01/17 02:18:34;;;;;;;285.50;69.55;;;;;;;;;;5077694;28;20206;-73
2023/01/17 02:21:14;;;;;;;284.73;66.85;;;;;;;;;;5077891;28;20242;-72
2023/01/17 02:24:12;;;;;;;276.10;63.95;;;;;;;;;;5077956;28;20209;-73
2023/01/17 02:26:51;;;;;;;275.40;64.82;;;;;;;;;;5077679;28;20217;-73
2023/01/17 02:29:37;;;;;;;285.65;65.47;;;;;;;;;;5077895;28;20272;-73
2023/01/17 02:32:12;;;;;;;280.33;64.53;;;;;;;;;;5080757;28;20195;-74
2023/01/17 02:34:42;;;;;;;282.58;65.85;;;;;;;;;;5059467;28;20469;-73
2023/01/17 02:37:13;;;;;;;283.42;66.65;;;;;;;;;;5077304;28;20583;-73
2023/01/17 02:39:43;;;;;;;299.33;69.28;;;;;;;;;;5076784;28;20216;-73
2023/01/17 02:42:15;;;;;;;281.40;67.32;;;;;;;;;;5077303;28;20238;-73
2023/01/17 02:44:43;;;;;;;279.60;67.60;;;;;;;;;;5077341;28;20206;-73
2023/01/17 02:47:25;;;;;;;274.63;66.70;;;;;;;;;;5077487;28;20195;-73
2023/01/17 02:49:53;;;;;;;280.98;65.78;;;;;;;;;;5077012;28;20256;-73
2023/01/17 02:52:36;;;;;;;282.45;67.80;;;;;;;;;;5081191;28;20198;-71
2023/01/17 02:55:15;;;;;;;285.23;67.05;;;;;;;;;;5094359;28;20233;-73
2023/01/17 02:58:14;;;;;;;270.13;64.35;;;;;;;;;;5090034;28;20213;-73
2023/01/17 03:00:51;;;;;;;270.65;65.55;;;;;;;;;;5014980;28;20238;-73
2023/01/17 03:03:27;;;;;;;285.13;68.28;;;;;;;;;;5066843;28;20206;-74
2023/01/17 03:05:58;;;;;;;282.52;66.10;;;;;;;;;;5076015;28;20555;-71
2023/01/17 03:08:27;;;;;;;281.88;66.90;;;;;;;;;;5076088;28;20585;-73
2023/01/17 03:10:56;;;;;;;279.20;65.35;;;;;;;;;;5090415;28;20540;-73
2023/01/17 03:13:23;;;;;;;282.33;68.00;;;;;;;;;;5096172;28;20271;-73
2023/01/17 03:15:51;;;;;;;276.13;66.82;;;;;;;;;;5096346;28;20304;-73
2023/01/17 03:18:19;;;;;;;274.98;65.10;;;;;;;;;;5096173;28;20216;-73
2023/01/17 03:20:52;;;;;;;267.50;63.70;;;;;;;;;;5096573;28;20238;-73
2023/01/17 03:23:21;;;;;;;277.63;67.45;;;;;;;;;;5096769;28;20206;-73
2023/01/17 03:25:48;;;;;;;279.75;67.00;;;;;;;;;;5096548;28;20287;-73
2023/01/17 03:28:18;;;;;;;276.27;66.93;;;;;;;;;;5096739;28;20201;-73
2023/01/17 03:30:46;;;;;;;269.98;68.65;;;;;;;;;;5096287;28;20202;-73
2023/01/17 03:33:14;;;;;;;274.05;66.65;;;;;;;;;;5091018;28;20205;-73
2023/01/17 03:35:48;;;;;;;272.65;66.68;;;;;;;;;;5085992;28;20577;-73
2023/01/17 03:38:18;;;;;;;275.45;66.55;;;;;;;;;;5096670;28;20205;-73
2023/01/17 03:40:48;;;;;;;272.23;66.78;;;;;;;;;;5076726;28;20317;-74
2023/01/17 03:43:16;;;;;;;273.15;67.35;;;;;;;;;;5076580;28;20243;-72
2023/01/17 03:45:44;;;;;;;268.35;66.65;;;;;;;;;;5059238;28;20214;-72
2023/01/17 03:48:12;;;;;;;264.58;67.07;;;;;;;;;;5076661;28;20799;-73
2023/01/17 03:50:40;;;;;;;271.85;69.18;;;;;;;;;;5076517;28;20587;-73
2023/01/17 03:53:11;;;;;;;266.85;66.18;;;;;;;;;;5089107;28;20306;-74
2023/01/17 03:55:40;;;;;;;274.40;66.80;;;;;;;;;;5096702;28;20214;-74
2023/01/17 03:58:08;;;;;;;279.52;66.90;;;;;;;;;;5096525;28;20205;-73
2023/01/17 04:00:35;;;;;;;275.83;68.47;;;;;;;;;;5079551;28;20209;-74
2023/01/17 04:03:03;;;;;;;263.13;65.93;;;;;;;;;;5075898;28;20349;-73
2023/01/17 04:05:30;;;;;;;275.60;68.20;;;;;;;;;;5075793;28;20272;-73
2023/01/17 04:07:58;;;;;;;258.08;65.20;;;;;;;;;;5076427;28;20214;-73
2023/01/17 04:10:26;;;;;;;263.55;66.57;;;;;;;;;;5079021;28;20206;-74
2023/01/17 04:12:55;;;;;;;270.30;66.88;;;;;;;;;;5080326;28;20190;-74
2023/01/17 04:15:23;;;;;;;273.02;69.53;;;;;;;;;;5096348;28;20206;-73
2023/01/17 04:17:53;;;;;;;275.95;69.68;;;;;;;;;;5096738;28;20206;-73
2023/01/17 04:20:26;;;;;;;283.45;70.57;;;;;;;;;;5094770;28;20494;-73
2023/01/17 04:22:53;;;;;;;289.08;69.60;;;;;;;;;;5098511;28;20259;-74
2023/01/17 04:25:21;;;;;;;274.85;68.05;;;;;;;;;;5100580;28;20491;-73
2023/01/17 04:27:49;;;;;;;289.30;67.50;;;;;;;;;;5099764;28;20209;-73
2023/01/17 04:30:18;;;;;;;285.30;67.65;;;;;;;;;;5092923;28;20598;-74
2023/01/17 04:32:46;;;;;;;285.15;71.65;;;;;;;;;;5079800;28;20289;-74
2023/01/17 04:35:14;;;;;;;282.95;67.95;;;;;;;;;;5090096;28;20202;-74
2023/01/17 04:37:42;;;;;;;280.35;72.43;;;;;;;;;;5080147;28;20209;-74
2023/01/17 04:40:10;;;;;;;275.63;66.80;;;;;;;;;;5081543;28;20206;-73
2023/01/17 04:42:41;;;;;;;279.42;70.85;;;;;;;;;;5082344;28;20226;-73
2023/01/17 04:45:09;;;;;;;278.02;65.82;;;;;;;;;;5079682;28;20206;-74
2023/01/17 04:47:38;;;;;;;281.80;67.57;;;;;;;;;;5079333;28;20288;-73
2023/01/17 04:50:06;;;;;;;268.10;65.07;;;;;;;;;;5088530;28;20207;-73
2023/01/17 04:52:34;;;;;;;282.13;69.90;;;;;;;;;;5099640;28;20212;-73
2023/01/17 04:55:02;;;;;;;270.77;66.10;;;;;;;;;;5099486;28;20671;-73
2023/01/17 04:57:30;;;;;;;261.73;70.22;;;;;;;;;;5099652;28;20214;-73
2023/01/17 04:59:58;;;;;;;316.15;101.93;;;;;;;;;;5091149;28;20205;-73
2023/01/17 05:02:26;;;;;;;290.65;70.93;;;;;;;;;;5079226;28;20230;-73
2023/01/17 05:04:54;;;;;;;278.25;64.07;;;;;;;;;;5078938;28;20195;-73
2023/01/17 05:07:22;;;;;;;281.13;65.07;;;;;;;;;;5083689;28;20593;-74
2023/01/17 05:09:50;;;;;;;303.40;84.40;;;;;;;;;;5083232;28;20561;-73
2023/01/17 05:12:18;;;;;;;289.92;79.45;;;;;;;;;;5079518;28;20473;-74
2023/01/17 05:14:45;;;;;;;302.88;95.72;;;;;;;;;;5078890;28;20202;-74
2023/01/17 05:17:13;;;;;;;302.27;96.97;;;;;;;;;;5078530;28;20202;-74
2023/01/17 05:19:40;;;;;;;285.13;73.40;;;;;;;;;;5079692;28;20194;-74
2023/01/17 05:22:14;;;;;;;290.05;77.28;;;;;;;;;;5093176;28;20234;-74
2023/01/17 05:24:42;;;;;;;286.30;73.00;;;;;;;;;;5099231;28;20213;-74
2023/01/17 05:27:10;;;;;;;288.15;74.35;;;;;;;;;;5096246;28;20232;-74
2023/01/17 05:29:39;;;;;;;280.60;76.15;;;;;;;;;;5078228;28;20206;-74
2023/01/17 05:32:07;;;;;;;282.55;66.60;;;;;;;;;;5078094;28;20473;-74
2023/01/17 05:34:37;;;;;;;302.17;88.20;;;;;;;;;;5092488;28;20296;-74
2023/01/17 05:37:05;;;;;;;285.67;64.22;;;;;;;;;;5096604;28;20202;-74
2023/01/17 05:39:34;;;;;;;291.63;66.10;;;;;;;;;;5093453;28;20199;-74
2023/01/17 05:42:02;;;;;;;297.45;88.22;;;;;;;;;;5080373;28;20218;-74
2023/01/17 05:44:30;;;;;;;300.27;67.40;;;;;;;;;;5087977;28;20264;-74
2023/01/17 05:46:58;;;;;;;286.27;64.13;;;;;;;;;;5078175;28;20213;-74
2023/01/17 05:49:26;;;;;;;286.27;64.90;;;;;;;;;;5086474;28;20240;-74
2023/01/17 05:51:56;;;;;;;295.27;66.53;;;;;;;;;;5093235;28;20198;-72
2023/01/17 05:54:25;;;;;;;296.95;66.88;;;;;;;;;;5091297;28;20198;-73
2023/01/17 05:56:55;;;;;;;294.63;67.65;;;;;;;;;;5088735;28;20582;-73
2023/01/17 05:59:26;;;;;;;282.85;64.78;;;;;;;;;;5097448;28;20631;-73
2023/01/17 06:01:53;;;;;;;286.17;64.55;;;;;;;;;;5092810;28;20222;-73
2023/01/17 06:04:21;;;;;;;294.33;79.50;;;;;;;;;;5086325;28;20320;-73
2023/01/17 06:06:49;;;;;;;302.48;70.63;;;;;;;;;;5079314;28;20210;-72
2023/01/17 06:09:17;;;;;;;301.05;106.53;;;;;;;;;;5076537;28;20582;-71
2023/01/17 06:11:45;;;;;;;284.20;66.75;;;;;;;;;;5083004;28;20303;-73
2023/01/17 06:14:14;;;;;;;293.63;67.35;;;;;;;;;;5076645;28;20256;-71
2023/01/17 06:16:42;;;;;;;289.08;69.07;;;;;;;;;;5080274;28;20268;-72
2023/01/17 06:19:10;;;;;;;287.98;66.32;;;;;;;;;;5077191;28;20230;-73
2023/01/17 06:21:38;;;;;;;289.85;66.97;;;;;;;;;;5108669;28;20221;-73
2023/01/17 06:24:14;;;;;;;288.95;69.00;;;;;;;;;;5096848;28;20202;-73
2023/01/17 06:26:41;;;;;;;288.13;77.30;;;;;;;;;;5085722;28;20240;-73
2023/01/17 06:29:12;;;;;;;288.92;78.63;;;;;;;;;;5083002;28;20602;-73
2023/01/17 06:31:40;;;;;;;293.48;66.20;;;;;;;;;;5085258;28;20197;-73
2023/01/17 06:34:08;;;;;;;278.10;64.25;;;;;;;;;;5083189;28;20198;-73
2023/01/17 06:36:36;;;;;;;288.88;67.80;;;;;;;;;;5073572;28;20206;-73
2023/01/17 06:39:03;;;;;;;291.20;69.20;;;;;;;;;;5073631;28;20707;-73
2023/01/17 06:41:34;;;;;;;292.02;66.40;;;;;;;;;;5076571;28;20297;-72
2023/01/17 06:44:01;;;;;;;285.58;65.38;;;;;;;;;;5085036;28;20701;-73
2023/01/17 06:46:41;;;;;;;288.90;66.38;;;;;;;;;;5083581;28;20206;-73
2023/01/17 06:49:11;;;;;;;284.90;66.72;;;;;;;;;;5076827;28;20206;-73
2023/01/17 06:51:40;;;;;;;291.48;67.65;;;;;;;;;;5085405;28;20229;-73
2023/01/17 06:54:09;;;;;;;282.30;65.32;;;;;;;;;;5088944;28;20213;-74
2023/01/17 06:59:21;;;;;;;289.35;65.90;;;;;;;;;;5094127;28;20655;-71
2023/01/17 07:01:54;;;;;;;290.13;68.55;;;;;;;;;;5086551;28;20224;-71
2023/01/17 07:04:31;;;;;;;291.90;69.05;;;;;;;;;;5073869;28;20217;-72
2023/01/17 07:06:59;;;;;;;279.10;65.97;;;;;;;;;;5088462;28;20300;-71
2023/01/17 07:09:34;;;;;;;291.73;65.38;;;;;;;;;;5088403;28;20500;-74
2023/01/17 07:12:05;;;;;;;283.05;66.93;;;;;;;;;;5087942;28;20204;-72
2023/01/17 07:14:36;;;;;;;285.90;68.13;;;;;;;;;;5108342;28;20503;-71
2023/01/17 07:17:05;;;;;;;285.83;67.93;;;;;;;;;;5114289;28;20204;-72
2023/01/17 07:19:34;;;;;;;279.10;68.25;;;;;;;;;;5079481;28;20198;-72
2023/01/17 07:22:02;;;;;;;291.20;71.72;;;;;;;;;;5073092;28;20222;-72
2023/01/17 07:24:30;;;;;;;279.70;67.03;;;;;;;;;;5080063;28;20205;-72
2023/01/17 07:26:58;;;;;;;278.02;67.05;;;;;;;;;;5094598;28;20326;-72
2023/01/17 07:29:38;;;;;;;298.00;85.15;;;;;;;;;;5093435;28;20597;-73
2023/01/17 07:32:07;;;;;;;285.73;93.97;;;;;;;;;;5089907;28;20211;-73
2023/01/17 07:34:36;;;;;;;287.95;72.03;;;;;;;;;;5073871;28;20198;-73
2023/01/17 07:37:04;;;;;;;282.15;66.63;;;;;;;;;;5076298;28;20198;-73
2023/01/17 07:39:32;;;;;;;284.90;71.32;;;;;;;;;;5077145;28;20202;-73
2023/01/17 07:42:00;;;;;;;285.45;68.28;;;;;;;;;;5073357;28;20230;-73
2023/01/17 07:44:42;;;;;;;275.27;71.53;;;;;;;;;;5078346;28;20205;-72
2023/01/17 07:47:10;;;;;;;259.70;69.53;;;;;;;;;;5073961;28;20206;-72
2023/01/17 07:49:40;;;;;;;269.15;74.32;;;;;;;;;;5080929;28;20199;-73
2023/01/17 07:52:08;;;;;;;281.05;73.70;;;;;;;;;;5080281;28;20206;-74
2023/01/17 07:54:35;;;;;;;259.88;71.93;;;;;;;;;;5093843;28;20217;-73
2023/01/17 07:57:03;;;;;;;267.77;81.40;;;;;;;;;;5091232;28;21490;-73
2023/01/17 07:59:36;;;;;;;274.23;77.35;;;;;;;;;;5077758;28;20613;-73
2023/01/17 08:02:09;;;;;;;278.33;73.18;;;;;;;;;;5086859;28;20232;-73
2023/01/17 08:04:37;;;;;;;273.30;83.10;;;;;;;;;;5082256;28;20203;-73
2023/01/17 08:07:06;;;;;;;282.63;70.80;;;;;;;;;;5073781;28;20333;-72
2023/01/17 08:09:48;;;;;;;281.42;67.68;;;;;;;;;;5075547;28;20268;-73
2023/01/17 08:12:24;;;;;;;275.77;68.40;;;;;;;;;;5085271;28;20193;-73
2023/01/17 08:15:05;;;;;;;289.38;75.63;;;;;;;;;;5076025;28;20204;-73
2023/01/17 08:17:37;;;;;;;286.33;74.97;;;;;;;;;;5082847;28;20202;-73
2023/01/17 08:20:06;;;;;;;284.08;72.03;;;;;;;;;;5083448;28;20277;-73
2023/01/17 08:22:41;;;;;;;277.88;69.03;;;;;;;;;;5085782;28;20231;-73
2023/01/17 08:27:58;;;;;;;279.20;70.03;;;;;;;;;;5079554;28;20336;-73
2023/01/17 08:30:27;;;;;;;282.35;73.25;;;;;;;;;;5085180;28;20582;-73
2023/01/17 08:36:05;;;;;;;272.77;70.40;;;;;;;;;;5081738;28;20285;-72
2023/01/17 08:38:39;;;;;;;266.90;67.47;;;;;;;;;;5082528;28;20210;-72
2023/01/17 08:41:26;;;;;;;;;;;;;;;;;;;;;
2023/01/17 08:46:48;;;;;;;263.60;77.15;;;;;;;;;;5068375;28;20206;-72
2023/01/17 08:49:19;;;;;;;260.33;76.22;;;;;;;;;;5091011;28;20684;-73
2023/01/17 08:51:47;;;;;;;272.55;72.88;;;;;;;;;;5075099;28;20202;-73
2023/01/17 08:54:31;;;;;;;288.33;73.22;;;;;;;;;;5078064;28;20198;-73
2023/01/17 08:57:04;;;;;;;276.48;78.90;;;;;;;;;;5085712;28;20617;-72
2023/01/17 08:59:47;;;;;;;286.45;73.20;;;;;;;;;;5076062;28;20289;-72
2023/01/17 09:02:18;;;;;;;282.38;74.47;;;;;;;;;;5076198;28;20218;-74
2023/01/17 09:04:46;;;;;;;284.33;72.47;;;;;;;;;;5075070;28;20778;-73
2023/01/17 09:07:15;;;;;;;280.23;70.65;;;;;;;;;;5080881;28;20779;-73
2023/01/17 09:09:48;;;;;;;281.90;72.90;;;;;;;;;;5096736;28;20222;-73
2023/01/17 09:12:17;;;;;;;283.23;77.07;;;;;;;;;;5088285;28;20236;-74
2023/01/17 09:14:52;;;;;;;274.60;74.38;;;;;;;;;;5081865;28;20237;-72
2023/01/17 09:35:14;;;;;;;284.20;78.73;;;;;;;;;;5085653;28;20904;-71
2023/01/17 09:37:44;;;;;;;282.80;75.93;;;;;;;;;;5087083;28;20874;-71
2023/01/17 09:40:28;;;;;;;279.02;70.90;;;;;;;;;;5092850;28;20440;-73
2023/01/17 09:43:03;;;;;;;280.52;70.90;;;;;;;;;;5090876;28;20226;-71
2023/01/17 09:45:35;;;;;;;303.50;72.00;;;;;;;;;;5082554;28;20203;-73
2023/01/17 09:48:13;;;;;;;276.48;70.22;;;;;;;;;;5081576;28;20477;-72
2023/01/17 09:50:48;;;;;;;282.50;77.50;;;;;;;;;;5070215;28;20206;-71
2023/01/17 09:53:20;;;;;;;274.52;77.28;;;;;;;;;;5080997;28;20194;-72
2023/01/17 09:55:57;;;;;;;267.17;82.57;;;;;;;;;;5084464;28;20201;-72
2023/01/17 09:58:36;;;;;;;276.15;80.40;;;;;;;;;;5085963;28;20589;-72
2023/01/17 10:01:16;;;;;;;261.65;79.68;;;;;;;;;;5082040;28;20266;-71
2023/01/17 10:04:05;;;;;;;268.20;89.05;;;;;;;;;;5082351;28;20226;-72
2023/01/17 10:06:51;;;;;;;267.05;86.40;;;;;;;;;;5076750;28;20218;-72
2023/01/17 10:09:38;;;;;;;275.73;84.15;;;;;;;;;;5076465;28;20804;-72
2023/01/17 10:12:23;;;;;;;269.15;78.28;;;;;;;;;;5090327;28;20208;-72
2023/01/17 10:15:01;;;;;;;272.35;73.03;;;;;;;;;;5093534;28;20205;-72
2023/01/17 10:17:51;;;;;;;273.83;71.63;;;;;;;;;;5088153;28;20579;-71
2023/01/17 10:20:33;;;;;;;270.35;71.55;;;;;;;;;;5087289;28;20381;-70
2023/01/17 10:23:20;;;;;;;275.17;77.28;;;;;;;;;;5085835;28;20240;-71
2023/01/17 10:26:02;;;;;;;281.40;72.75;;;;;;;;;;5079563;28;20206;-71
2023/01/17 10:31:40;;;;;;;275.40;72.45;;;;;;;;;;5086967;28;20217;-72
2023/01/17 10:34:18;;;;;;;278.40;79.63;;;;;;;;;;5083091;28;20208;-71
2023/01/17 10:36:49;;;;;;;282.85;78.82;;;;;;;;;;5083080;28;20209;-71
2023/01/17 10:39:18;;;;;;;279.77;77.60;;;;;;;;;;5077269;28;20203;-72
2023/01/17 10:41:58;;;;;;;267.67;69.50;;;;;;;;;;5077820;28;20206;-73
2023/01/17 10:44:31;;;;;;;267.10;75.07;;;;;;;;;;5080643;28;20264;-72
2023/01/17 10:47:03;;;;;;;306.17;107.72;;;;;;;;;;5080163;28;20202;-72
2023/01/17 10:52:34;;;;;;;286.40;79.90;;;;;;;;;;5075741;28;20308;-73
2023/01/17 10:55:09;;;;;;;290.20;83.32;;;;;;;;;;5075147;28;20598;-72
2023/01/17 10:57:41;;;;;;;310.92;113.80;;;;;;;;;;5075281;28;20236;-72
2023/01/17 11:00:29;;;;;;;305.55;102.32;;;;;;;;;;5080628;28;20229;-72
2023/01/17 11:02:58;;;;;;;280.88;75.50;;;;;;;;;;5080032;28;20229;-72
2023/01/17 11:05:39;;;;;;;287.70;86.07;;;;;;;;;;5080844;28;20218;-72
2023/01/17 11:08:22;;;;;;;278.95;78.88;;;;;;;;;;5089818;28;20602;-71
2023/01/17 11:10:52;;;;;;;299.05;104.57;;;;;;;;;;5085349;28;20201;-71
2023/01/17 11:13:25;;;;;;;305.60;83.72;;;;;;;;;;5087174;28;20221;-71
2023/01/17 11:15:58;;;;;;;288.25;71.00;;;;;;;;;;5091544;28;20202;-72
2023/01/17 11:18:29;;;;;;;303.50;89.63;;;;;;;;;;5085311;28;20206;-72
2023/01/17 11:21:10;;;;;;;303.23;74.10;;;;;;;;;;5088043;28;20225;-73
2023/01/17 11:23:47;;;;;;;308.05;75.93;;;;;;;;;;5081481;28;20221;-73
2023/01/17 11:26:38;;;;;;;293.73;68.55;;;;;;;;;;5075825;28;20210;-72
2023/01/17 11:29:32;;;;;;;294.00;73.47;;;;;;;;;;5067481;28;20209;-72
2023/01/17 11:32:20;;;;;;;289.30;74.22;;;;;;;;;;5079697;28;22138;-71
2023/01/17 11:35:06;;;;;;;275.52;70.22;;;;;;;;;;5076944;28;20214;-72
2023/01/17 11:40:29;;;;;;;289.95;70.32;;;;;;;;;;5079636;28;20283;-72
2023/01/17 11:43:08;;;;;;;293.50;78.57;;;;;;;;;;5078305;28;20229;-70
2023/01/17 11:46:05;;;;;;;272.85;72.22;;;;;;;;;;5085352;28;20221;-71
2023/01/17 11:48:52;;;;;;;283.17;75.43;;;;;;;;;;5085972;28;20205;-72
2023/01/17 11:51:22;;;;;;;264.75;69.93;;;;;;;;;;5086821;28;20301;-72
2023/01/17 11:53:50;;;;;;;281.05;69.18;;;;;;;;;;5084257;28;20662;-71
2023/01/17 11:56:22;;;;;;;275.70;76.32;;;;;;;;;;5084565;28;20222;-72
2023/01/17 11:58:50;;;;;;;272.35;85.63;;;;;;;;;;5083743;28;20237;-72
2023/01/17 12:01:45;;;;;;;260.45;90.63;;;;;;;;;;5076493;28;20640;-72
2023/01/17 12:04:36;;;;;;;275.08;87.15;;;;;;;;;;5084403;28;20248;-71
2023/01/17 12:07:13;;;;;;;279.48;71.38;;;;;;;;;;5078003;28;20213;-71
2023/01/17 12:09:45;;;;;;;278.35;78.65;;;;;;;;;;5088689;28;20695;-73
2023/01/17 12:15:07;;;;;;;286.92;71.75;;;;;;;;;;5072700;28;20209;-72
2023/01/17 12:17:49;;;;;;;271.38;72.65;;;;;;;;;;5073468;28;20268;-71
2023/01/17 12:20:21;;;;;;;268.90;74.68;;;;;;;;;;5085279;28;20232;-71
2023/01/17 12:23:04;;;;;;;300.60;118.70;;;;;;;;;;5074888;28;20236;-71
2023/01/17 12:25:42;;;;;;;277.92;79.85;;;;;;;;;;5083944;28;20706;-71
2023/01/17 12:28:31;;;;;;;272.58;87.70;;;;;;;;;;5074734;28;20201;-71
2023/01/17 12:31:05;;;;;;;315.67;95.32;;;;;;;;;;5078975;28;20218;-72
2023/01/17 12:33:39;;;;;;;296.65;76.72;;;;;;;;;;5076899;28;20767;-71
2023/01/17 12:36:16;;;;;;;291.90;70.32;;;;;;;;;;5075009;28;20375;-72
2023/01/17 12:38:47;;;;;;;296.85;77.43;;;;;;;;;;5076394;28;20588;-71
2023/01/17 12:41:17;;;;;;;281.60;72.90;;;;;;;;;;5073128;28;20213;-72
2023/01/17 12:43:45;;;;;;;277.60;77.55;;;;;;;;;;5090370;28;20229;-76
2023/01/17 12:46:19;;;;;;;293.48;73.93;;;;;;;;;;5095417;28;20206;-71
2023/01/17 12:49:14;;;;;;;300.48;78.50;;;;;;;;;;5083859;28;20206;-72
2023/01/17 12:52:06;;;;;;;298.00;73.22;;;;;;;;;;5087526;28;20198;-72
2023/01/17 12:55:11;;;;;;;;;;;;;;;;;;;;;
2023/01/17 12:58:02;;;;;;;279.05;74.18;;;;;;;;;;5081731;28;20214;-72
2023/01/17 13:00:30;;;;;;;307.50;76.38;;;;;;;;;;5089693;28;20682;-71
2023/01/17 13:03:05;;;;;;;323.27;82.93;;;;;;;;;;5093955;28;20205;-71
2023/01/17 13:08:30;;;;;;;268.58;68.63;;;;;;;;;;5088775;28;20233;-72
2023/01/17 13:11:05;;;;;;;269.27;78.45;;;;;;;;;;5086428;28;20298;-72
2023/01/17 13:13:51;;;;;;;280.95;92.75;;;;;;;;;;5082467;28;20201;-73
2023/01/17 13:16:29;;;;;;;296.27;91.88;;;;;;;;;;5091481;28;20222;-72
2023/01/17 13:19:04;;;;;;;285.00;84.43;;;;;;;;;;5089938;28;20213;-74
2023/01/17 13:21:34;;;;;;;295.00;73.00;;;;;;;;;;5091024;28;20233;-74
2023/01/17 13:24:19;;;;;;;301.60;73.07;;;;;;;;;;5085851;28;20222;-73
2023/01/17 13:29:56;;;;;;;278.25;69.40;;;;;;;;;;5093329;28;20285;-72
2023/01/17 13:32:44;;;;;;;291.55;71.88;;;;;;;;;;5090859;28;20743;-73
2023/01/17 13:35:19;;;;;;;290.17;79.63;;;;;;;;;;5082521;28;20472;-73
2023/01/17 13:37:53;;;;;;;278.65;92.03;;;;;;;;;;5078287;28;20279;-73
2023/01/17 13:40:33;;;;;;;290.25;104.78;;;;;;;;;;5081798;28;20212;-72
2023/01/17 13:43:09;;;;;;;278.92;73.13;;;;;;;;;;5078272;28;20202;-73
2023/01/17 13:45:40;;;;;;;285.58;72.85;;;;;;;;;;5077359;28;20702;-74
2023/01/17 13:48:39;;;;;;;274.88;76.10;;;;;;;;;;5084265;28;20613;-72
2023/01/17 13:51:07;;;;;;;285.73;70.78;;;;;;;;;;5082305;28;20203;-73
2023/01/17 13:54:07;;;;;;;280.35;77.00;;;;;;;;;;5087249;28;20206;-72
2023/01/17 13:56:38;;;;;;;275.33;79.32;;;;;;;;;;5077446;28;20298;-72
2023/01/17 13:59:28;;;;;;;282.02;74.07;;;;;;;;;;5078299;28;20206;-73
2023/01/17 14:02:12;;;;;;;284.13;72.07;;;;;;;;;;5079319;28;20217;-73
2023/01/17 14:05:15;;;;;;;280.38;75.82;;;;;;;;;;5085540;28;20617;-73
2023/01/17 14:07:59;;;;;;;294.83;83.30;;;;;;;;;;5077906;28;20519;-73
2023/01/17 14:10:41;;;;;;;294.92;68.80;;;;;;;;;;5083975;28;20203;-73
2023/01/17 14:13:32;;;;;;;299.55;71.95;;;;;;;;;;5081696;28;20236;-73
2023/01/17 14:16:13;;;;;;;302.15;72.82;;;;;;;;;;5083238;28;20194;-73
2023/01/17 14:18:57;;;;;;;298.88;74.90;;;;;;;;;;5082544;28;20212;-73
2023/01/17 14:42:13;;;;;;;290.52;87.45;;;;;;;;;;5081216;28;20230;-72
2023/01/17 15:07:33;;;;;;;278.73;72.18;;;;;;;;;;4995468;28;20205;-74
2023/01/17 15:10:32;;;;;;;;;;;;;;;;;;;;;
2023/01/17 15:13:17;;;;;;;285.95;81.57;;;;;;;;;;5016508;28;20220;-74
2023/01/17 15:18:34;;;;;;;274.70;71.15;;;;;;;;;;5020260;28;20211;-74
2023/01/17 15:21:04;;;;;;;307.35;72.32;;;;;;;;;;5029027;28;20230;-74
2023/01/17 15:23:54;;;;;;;282.55;72.45;;;;;;;;;;5031264;28;20843;-73
2023/01/17 15:33:02;;;;;;;292.58;69.85;;;;;;;;;;5068727;28;20192;-73
2023/01/17 15:35:35;;;;;;;300.20;73.72;;;;;;;;;;5071809;28;20248;-73
2023/01/17 15:41:40;;;;;;;300.10;71.95;;;;;;;;;;4994793;28;20209;-74
2023/01/17 16:03:16;;;;;;;305.13;70.97;;;;;;;;;;5019715;28;20232;-72
2023/01/17 16:06:09;;;;;;;304.38;77.05;;;;;;;;;;5034527;28;20227;-72
2023/01/17 16:09:26;;;;;;;298.15;66.75;;;;;;;;;;5033249;28;20204;-73
2023/01/17 16:26:13;;;;;;;310.70;72.88;;;;;;;;;;5091474;28;20319;-74
2023/01/17 16:35:02;;;;;;;300.13;77.32;;;;;;;;;;5096748;28;20685;-72
2023/01/17 16:40:25;;;;;;;309.63;115.53;;;;;;;;;;5079567;28;20214;-72
2023/01/17 16:49:02;;;;;;;292.38;67.22;;;;;;;;;;5098735;28;20237;-72
2023/01/17 16:54:44;;;;;;;292.88;68.30;;;;;;;;;;5093344;28;20281;-72
2023/01/17 16:57:20;;;;;;;298.20;69.50;;;;;;;;;;5087023;28;20625;-73
2023/01/17 17:15:54;;;;;;;301.25;72.88;;;;;;;;;;4966276;28;20216;-73
2023/01/17 17:36:08;;;;;;;283.23;88.40;;;;;;;;;;5055750;28;20544;-73
2023/01/17 17:38:49;;;;;;;287.40;69.43;;;;;;;;;;5024408;28;20615;-73
2023/01/17 17:41:51;;;;;;;292.13;66.40;;;;;;;;;;5037673;28;20200;-72
2023/01/17 17:44:39;;;;;;;283.83;63.70;;;;;;;;;;5043178;28;20211;-72
2023/01/17 17:47:11;;;;;;;283.85;66.50;;;;;;;;;;5045775;28;20207;-73
2023/01/17 18:02:09;;;;;;;296.40;66.68;;;;;;;;;;5017256;28;20255;-73
2023/01/17 18:10:58;;;;;;;302.98;69.68;;;;;;;;;;5005199;28;20305;-73
2023/01/17 18:13:29;;;;;;;298.40;69.20;;;;;;;;;;5056008;28;20214;-73
2023/01/17 18:16:14;;;;;;;292.92;64.28;;;;;;;;;;5055566;28;20207;-73
2023/01/17 18:18:46;;;;;;;300.08;68.20;;;;;;;;;;5037910;28;20203;-73
2023/01/17 18:21:25;;;;;;;296.20;66.47;;;;;;;;;;5056333;28;20260;-73
2023/01/17 18:23:55;;;;;;;295.25;65.68;;;;;;;;;;5055486;28;20542;-72
2023/01/17 18:26:32;;;;;;;292.98;85.82;;;;;;;;;;5060594;28;20238;-73
2023/01/17 18:29:05;;;;;;;299.80;67.03;;;;;;;;;;5058392;28;20199;-73
2023/01/17 18:31:34;;;;;;;296.83;66.97;;;;;;;;;;5055837;28;20203;-72
2023/01/17 18:34:05;;;;;;;289.23;70.30;;;;;;;;;;5056294;28;20206;-72
2023/01/17 18:36:45;;;;;;;298.40;75.07;;;;;;;;;;5055983;28;20331;-73
2023/01/17 18:39:28;;;;;;;287.92;68.20;;;;;;;;;;5075075;28;20201;-73
2023/01/17 18:45:14;;;;;;;277.88;97.68;;;;;;;;;;5061368;28;20288;-73
2023/01/17 18:48:02;;;;;;;273.33;79.13;;;;;;;;;;5056568;28;20199;-73
2023/01/17 18:50:35;;;;;;;287.88;72.07;;;;;;;;;;5074351;28;20610;-72
2023/01/17 18:53:10;;;;;;;280.35;90.18;;;;;;;;;;5061839;28;20210;-72
2023/01/17 18:55:48;;;;;;;293.98;83.75;;;;;;;;;;5058662;28;20222;-72
2023/01/17 18:58:19;;;;;;;282.40;73.38;;;;;;;;;;5052165;28;20331;-72
2023/01/17 19:00:53;;;;;;;287.73;71.20;;;;;;;;;;5055393;28;20290;-73
2023/01/17 19:03:27;;;;;;;295.02;67.57;;;;;;;;;;5047542;28;20215;-73
2023/01/17 19:05:59;;;;;;;302.67;66.60;;;;;;;;;;5055625;28;20573;-73
2023/01/17 19:09:06;;;;;;;301.77;67.82;;;;;;;;;;5071131;28;20214;-74
2023/01/17 19:11:36;;;;;;;298.77;72.30;;;;;;;;;;5047911;28;20210;-73
2023/01/17 19:14:04;;;;;;;331.30;88.78;;;;;;;;;;5039076;28;20914;-73
2023/01/17 19:16:45;;;;;;;323.15;72.15;;;;;;;;;;5054500;28;20293;-73
2023/01/17 19:22:15;;;;;;;302.25;66.90;;;;;;;;;;5044751;28;20253;-73
2023/01/17 19:24:51;;;;;;;304.80;68.72;;;;;;;;;;5052422;28;20641;-73
2023/01/17 19:27:38;;;;;;;290.85;72.28;;;;;;;;;;5056807;28;20206;-73
2023/01/17 19:33:23;;;;;;;306.42;68.55;;;;;;;;;;5058832;28;20206;-73
2023/01/17 19:36:04;;;;;;;302.13;66.63;;;;;;;;;;5049862;28;20670;-73
2023/01/17 19:41:47;;;;;;;301.13;65.25;;;;;;;;;;5042864;28;20212;-73
2023/01/17 19:44:35;;;;;;;306.88;68.30;;;;;;;;;;5054031;28;20754;-73
2023/01/17 19:49:50;;;;;;;314.65;71.88;;;;;;;;;;5052770;28;20211;-73
2023/01/17 19:55:34;;;;;;;288.25;80.90;;;;;;;;;;5053909;28;20602;-73